map of RBQ home
RBQ - Airport
Location
City:  Rurrenabaque, José Ballivián, El Beni, Bolivia
Name:Rurrenabaque Airport
ICAO:SLRQ
IATA:RBQ

Details
Type:Airport (Aerodrome, Airfield)
Latitude:14°25'39"S (-14.427499)
Longitude:67°29'53"W (-67.498055)
Elevation:898 ft (274 m)
Variation:9.23°W (WMM2015 magnetic declination)
-0.19° annual change
Runways:1
Longest:7054 ft (2150 m)

Time
Time Zone:UTC-4
Local Time:

Weather
METAR:SLRQ 162200Z 00000KT 9999 SCT017 SCT200 30/27 Q1005

Related Locations
Nearby:
Farthest:ZJYX: 12264 mi / 19737 km
Yongxing Island [Yongxing Island Airport], Xisha Islands (Woody Island, Paracel Islands), 46, CN

Find:

   beyond  
but within

Other Information
Maps:
NOTAMs:
Links:
Sources:

  
  • flag of Bolivia
  • flag of El Beni
  

Sectional Chart

Flight Planning
at skyvector.com

Satellite Image

Google Maps Satellite view

 

Copyright © 2004-2018 Karl L. Swartz. All rights reserved.
The Great Circle Mapper name and logo are trademarks of the Great Circle Mapper.
All other trademarks mentioned herein belong to their respective owners.
Please see credits for attibutions and further copyright information.

  Follow gcmap on Facebook Follow gcmap on Twitter Follow gcmap on Google+ GCmap on LinkedIn

hCard Microformat

Geo Microformat